createdAt,value
2023-03-11T00:00:32.751Z,970.58
2023-03-11T00:01:32.766Z,970.61
2023-03-11T00:02:32.730Z,970.73
2023-03-11T00:03:32.904Z,970.72
2023-03-11T00:04:32.722Z,970.70
2023-03-11T00:05:32.747Z,970.90
2023-03-11T00:06:32.670Z,970.97
2023-03-11T00:07:32.677Z,970.96
2023-03-11T00:08:32.688Z,970.97
2023-03-11T00:09:32.623Z,971.03
2023-03-11T00:10:32.614Z,971.02
2023-03-11T00:11:32.620Z,970.97
2023-03-11T00:12:32.602Z,971.18
2023-03-11T00:13:32.562Z,971.18
2023-03-11T00:14:32.549Z,971.21
2023-03-11T00:15:32.527Z,971.23
2023-03-11T00:16:32.575Z,971.21
2023-03-11T00:17:32.498Z,971.26
2023-03-11T00:18:32.483Z,971.32
2023-03-11T00:19:32.475Z,971.37
2023-03-11T00:20:32.470Z,971.38
2023-03-11T00:21:32.435Z,971.30
2023-03-11T00:22:32.414Z,971.41
2023-03-11T00:23:32.404Z,971.36
2023-03-11T00:24:32.426Z,971.40
2023-03-11T00:25:32.370Z,971.41
2023-03-11T00:26:32.363Z,971.61
2023-03-11T00:27:32.354Z,971.49
2023-03-11T00:28:34.341Z,971.56
2023-03-11T00:29:32.334Z,971.54
2023-03-11T00:30:32.422Z,971.62
2023-03-11T00:31:32.497Z,971.57
2023-03-11T00:32:32.299Z,971.56
2023-03-11T00:33:32.283Z,971.76
2023-03-11T00:34:32.254Z,971.65
2023-03-11T00:35:32.338Z,971.74
2023-03-11T00:36:32.224Z,971.82
2023-03-11T00:37:32.227Z,971.74
2023-03-11T00:38:32.229Z,971.81
2023-03-11T00:39:32.177Z,971.89
2023-03-11T00:40:32.179Z,971.86
2023-03-11T00:41:32.143Z,972.01
2023-03-11T00:42:32.162Z,971.89
2023-03-11T00:43:32.119Z,971.85
2023-03-11T00:44:32.105Z,971.93
2023-03-11T00:45:32.090Z,972.04
2023-03-11T00:46:32.332Z,972.07
2023-03-11T00:47:32.055Z,972.05
2023-03-11T00:48:32.077Z,972.08
2023-03-11T00:49:32.019Z,972.29
2023-03-11T00:50:32.027Z,972.30
2023-03-11T00:51:34.205Z,972.26
2023-03-11T00:52:31.970Z,972.43
2023-03-11T00:53:31.973Z,972.21
2023-03-11T00:54:31.959Z,972.25
2023-03-11T00:55:31.934Z,972.34
2023-03-11T00:56:31.939Z,972.32
2023-03-11T00:57:31.915Z,972.33
2023-03-11T00:58:31.894Z,972.39
2023-03-11T00:59:31.870Z,972.51
2023-03-11T01:00:31.868Z,972.59
2023-03-11T01:01:31.928Z,972.44
2023-03-11T01:02:31.845Z,972.52
2023-03-11T01:03:31.806Z,972.56
2023-03-11T01:04:31.814Z,972.56
2023-03-11T01:05:31.781Z,972.70
2023-03-11T01:06:43.152Z,972.62
2023-03-11T01:07:31.771Z,972.67
2023-03-11T01:08:31.733Z,972.62
2023-03-11T01:09:31.754Z,972.68
2023-03-11T01:10:31.710Z,972.77
2023-03-11T01:11:32.095Z,972.90
2023-03-11T01:12:31.695Z,972.72
2023-03-11T01:13:31.682Z,972.80
2023-03-11T01:14:31.675Z,972.92
2023-03-11T01:15:31.687Z,972.94
2023-03-11T01:16:31.624Z,972.79
2023-03-11T01:17:31.610Z,972.82
2023-03-11T01:18:31.598Z,972.97
2023-03-11T01:19:31.567Z,972.94
2023-03-11T01:20:31.570Z,973.01
2023-03-11T01:21:31.562Z,973.01
2023-03-11T01:22:31.742Z,973.07
2023-03-11T01:23:31.524Z,973.10
2023-03-11T01:24:31.717Z,973.16
2023-03-11T01:25:31.490Z,973.13
2023-03-11T01:26:31.465Z,973.06
2023-03-11T01:27:31.456Z,973.31
2023-03-11T01:28:31.460Z,973.25
2023-03-11T01:29:31.630Z,973.27
2023-03-11T01:30:31.428Z,973.29
2023-03-11T01:31:31.534Z,973.34
2023-03-11T01:32:31.401Z,973.42
2023-03-11T01:33:31.572Z,973.36
2023-03-11T01:34:31.357Z,973.46
2023-03-11T01:35:31.406Z,973.41
2023-03-11T01:36:31.314Z,973.54
2023-03-11T01:37:31.295Z,973.59
2023-03-11T01:38:31.282Z,973.61
2023-03-11T01:39:31.477Z,973.58
2023-03-11T01:40:31.250Z,973.70
2023-03-11T01:41:31.251Z,973.70
2023-03-11T01:42:31.241Z,973.63
2023-03-11T01:43:31.225Z,973.72
2023-03-11T01:44:31.217Z,973.71
2023-03-11T01:45:31.182Z,973.85
2023-03-11T01:46:31.267Z,973.83
2023-03-11T01:47:31.167Z,973.88
2023-03-11T01:48:31.358Z,973.89
2023-03-11T01:49:31.149Z,973.91
2023-03-11T01:50:31.112Z,973.90
2023-03-11T01:51:31.100Z,973.95
2023-03-11T01:52:31.075Z,973.92
2023-03-11T01:53:31.078Z,973.97
2023-03-11T01:54:31.049Z,974.07
2023-03-11T01:55:31.024Z,974.06
2023-03-11T01:56:31.010Z,974.10
2023-03-11T01:57:30.991Z,973.99
2023-03-11T01:58:30.996Z,974.22
2023-03-11T01:59:30.985Z,974.20
2023-03-11T02:00:30.985Z,974.21
2023-03-11T02:01:30.987Z,974.24
2023-03-11T02:02:31.012Z,974.30
2023-03-11T02:03:30.921Z,974.27
2023-03-11T02:04:30.894Z,974.29
2023-03-11T02:05:30.876Z,974.34
2023-03-11T02:06:30.869Z,974.31
2023-03-11T02:07:30.849Z,974.36
2023-03-11T02:08:30.853Z,974.40
2023-03-11T02:09:30.853Z,974.42
2023-03-11T02:10:31.013Z,974.45
2023-03-11T02:11:30.994Z,974.48
2023-03-11T02:12:31.396Z,974.57
2023-03-11T02:13:30.769Z,974.51
2023-03-11T02:14:30.759Z,974.55
2023-03-11T02:15:30.744Z,974.55
2023-03-11T02:16:30.870Z,974.56
2023-03-11T02:17:30.734Z,974.64
2023-03-11T02:18:30.704Z,974.61
2023-03-11T02:19:30.894Z,974.62
2023-03-11T02:20:30.666Z,974.66
2023-03-11T02:21:30.648Z,974.78
2023-03-11T02:22:30.647Z,974.73
2023-03-11T02:23:30.654Z,974.77
2023-03-11T02:24:30.613Z,974.76
2023-03-11T02:25:30.579Z,974.80
2023-03-11T02:26:30.570Z,974.85
2023-03-11T02:27:30.768Z,974.80
2023-03-11T02:28:30.556Z,974.85
2023-03-11T02:29:30.538Z,974.77
2023-03-11T02:30:30.716Z,975.01
2023-03-11T02:31:30.518Z,974.90
2023-03-11T02:32:30.769Z,975.03
2023-03-11T02:33:30.507Z,975.06
2023-03-11T02:34:30.452Z,975.03
2023-03-11T02:35:30.581Z,975.06
2023-03-11T02:36:30.428Z,975.08
2023-03-11T02:37:30.411Z,975.15
2023-03-11T02:38:30.460Z,975.22
2023-03-11T02:39:30.392Z,975.19
2023-03-11T02:40:30.400Z,975.24
2023-03-11T02:41:30.376Z,975.27
2023-03-11T02:42:30.387Z,975.24
2023-03-11T02:43:30.321Z,975.34
2023-03-11T02:44:30.298Z,975.26
2023-03-11T02:45:30.335Z,975.31
2023-03-11T02:46:30.321Z,975.32
2023-03-11T02:47:30.272Z,975.49
2023-03-11T02:48:30.276Z,975.38
2023-03-11T02:49:30.245Z,975.49
2023-03-11T02:50:30.462Z,975.38
2023-03-11T02:51:30.213Z,975.38
2023-03-11T02:52:30.185Z,975.52
2023-03-11T02:53:30.207Z,975.43
2023-03-11T02:54:30.179Z,975.51
2023-03-11T02:55:30.284Z,975.52
2023-03-11T02:56:30.147Z,975.46
2023-03-11T02:57:30.140Z,975.56
2023-03-11T02:58:30.088Z,975.53
2023-03-11T02:59:30.098Z,975.59
2023-03-11T03:00:30.079Z,975.64
2023-03-11T03:01:30.054Z,975.58
2023-03-11T03:02:30.038Z,975.60
2023-03-11T03:03:30.128Z,975.64
2023-03-11T03:04:30.242Z,975.65
2023-03-11T03:05:30.169Z,975.65
2023-03-11T03:06:30.001Z,975.72
2023-03-11T03:07:29.981Z,975.69
2023-03-11T03:08:30.110Z,975.66
2023-03-11T03:09:29.928Z,975.72
2023-03-11T03:10:29.966Z,975.67
2023-03-11T03:11:29.939Z,975.83
2023-03-11T03:12:30.075Z,975.86
2023-03-11T03:13:29.938Z,975.86
2023-03-11T03:14:29.875Z,975.90
2023-03-11T03:15:29.844Z,975.99
2023-03-11T03:16:29.967Z,976.05
2023-03-11T03:17:29.867Z,975.90
2023-03-11T03:18:29.845Z,976.02
2023-03-11T03:19:29.805Z,976.02
2023-03-11T03:20:29.826Z,976.02
2023-03-11T03:21:29.759Z,976.14
2023-03-11T03:22:29.757Z,976.07
2023-03-11T03:23:29.779Z,976.23
2023-03-11T03:24:29.726Z,976.29
2023-03-11T03:25:29.723Z,976.26
2023-03-11T03:26:29.684Z,976.25
2023-03-11T03:27:29.667Z,976.20
2023-03-11T03:28:29.685Z,976.25
2023-03-11T03:29:29.654Z,976.25
2023-03-11T03:30:29.661Z,976.19
2023-03-11T03:31:29.615Z,976.22
2023-03-11T03:32:29.669Z,976.32
2023-03-11T03:33:29.576Z,976.40
2023-03-11T03:34:29.791Z,976.30
2023-03-11T03:35:29.560Z,976.33
2023-03-11T03:36:29.564Z,976.36
2023-03-11T03:37:29.513Z,976.30
2023-03-11T03:38:29.506Z,976.30
2023-03-11T03:39:30.758Z,976.40
2023-03-11T03:40:29.475Z,976.41
2023-03-11T03:41:29.479Z,976.46
2023-03-11T03:42:29.534Z,976.57
2023-03-11T03:43:29.520Z,976.53
2023-03-11T03:44:29.457Z,976.53
2023-03-11T03:45:29.429Z,976.57
2023-03-11T03:46:29.404Z,976.59
2023-03-11T03:47:29.390Z,976.65
2023-03-11T03:48:29.351Z,976.71
2023-03-11T03:49:29.355Z,976.72
2023-03-11T03:50:29.435Z,976.73
2023-03-11T03:51:29.315Z,976.71
2023-03-11T03:52:29.319Z,976.73
2023-03-11T03:53:29.289Z,976.77
2023-03-11T03:54:29.304Z,976.85
2023-03-11T03:55:29.249Z,976.85
2023-03-11T03:56:29.264Z,976.95
2023-03-11T03:57:29.252Z,976.97
2023-03-11T03:58:29.235Z,976.95
2023-03-11T03:59:29.209Z,976.99
2023-03-11T04:00:29.218Z,977.04
2023-03-11T04:01:29.165Z,977.02
2023-03-11T04:02:29.269Z,977.12
2023-03-11T04:03:29.169Z,977.05
2023-03-11T04:04:29.138Z,977.10
2023-03-11T04:05:29.206Z,977.04
2023-03-11T04:06:29.090Z,977.04
2023-03-11T04:07:29.067Z,977.11
2023-03-11T04:08:29.092Z,977.24
2023-03-11T04:09:29.095Z,977.15
2023-03-11T04:10:29.051Z,977.25
2023-03-11T04:11:29.078Z,977.20
2023-03-11T04:12:29.052Z,977.29
2023-03-11T04:13:29.031Z,977.26
2023-03-11T04:14:28.995Z,977.19
2023-03-11T04:15:28.956Z,977.31
2023-03-11T04:16:28.957Z,977.34
2023-03-11T04:17:28.916Z,977.32
2023-03-11T04:18:28.953Z,977.27
2023-03-11T04:19:28.899Z,977.22
2023-03-11T04:20:28.873Z,977.25
2023-03-11T04:21:28.905Z,977.40
2023-03-11T04:22:28.945Z,977.39
2023-03-11T04:23:28.870Z,977.39
2023-03-11T04:24:28.845Z,977.40
2023-03-11T04:25:28.790Z,977.47
2023-03-11T04:26:28.823Z,977.40
2023-03-11T04:27:28.820Z,977.47
2023-03-11T04:28:28.749Z,977.49
2023-03-11T04:29:28.742Z,977.44
2023-03-11T04:30:28.730Z,977.60
2023-03-11T04:31:28.754Z,977.54
2023-03-11T04:32:28.743Z,977.59
2023-03-11T04:33:28.724Z,977.59
2023-03-11T04:34:28.712Z,977.63
2023-03-11T04:35:28.644Z,977.63
2023-03-11T04:36:28.680Z,977.68
2023-03-11T04:37:28.621Z,977.58
2023-03-11T04:38:28.660Z,977.65
2023-03-11T04:39:28.601Z,977.66
2023-03-11T04:40:28.611Z,977.77
2023-03-11T04:41:28.583Z,977.79
2023-03-11T04:42:28.577Z,977.66
2023-03-11T04:43:28.536Z,977.70
2023-03-11T04:44:28.633Z,977.71
2023-03-11T04:45:28.522Z,977.68
2023-03-11T04:46:28.530Z,977.78
2023-03-11T04:47:28.520Z,977.74
2023-03-11T04:48:28.503Z,977.73
2023-03-11T04:49:28.494Z,977.74
2023-03-11T04:50:28.447Z,977.75
2023-03-11T04:51:28.445Z,977.82
2023-03-11T04:52:28.437Z,977.84
2023-03-11T04:53:28.400Z,977.82
2023-03-11T04:54:28.381Z,977.81
2023-03-11T04:55:28.385Z,977.89
2023-03-11T04:56:28.355Z,977.97
2023-03-11T04:57:28.371Z,977.91
2023-03-11T04:58:28.322Z,977.88
2023-03-11T04:59:28.287Z,977.92
2023-03-11T05:00:28.303Z,977.96
2023-03-11T05:01:28.338Z,977.98
2023-03-11T05:02:28.230Z,977.92
2023-03-11T05:03:28.300Z,977.94
2023-03-11T05:04:28.346Z,978.00
2023-03-11T05:05:28.195Z,978.04
2023-03-11T05:06:28.193Z,977.98
2023-03-11T05:07:28.224Z,978.00
2023-03-11T05:08:28.197Z,978.01
2023-03-11T05:09:28.162Z,978.04
2023-03-11T05:10:30.124Z,978.05
2023-03-11T05:11:28.115Z,978.11
2023-03-11T05:12:28.319Z,978.21
2023-03-11T05:13:28.072Z,978.11
2023-03-11T05:14:28.073Z,978.11
2023-03-11T05:15:28.037Z,978.15
2023-03-11T05:16:28.160Z,978.20
2023-03-11T05:17:28.149Z,978.18
2023-03-11T05:18:28.027Z,978.19
2023-03-11T05:19:28.010Z,978.23
2023-03-11T05:20:27.976Z,978.26
2023-03-11T05:21:27.963Z,978.32
2023-03-11T05:22:28.000Z,978.36
2023-03-11T05:23:27.999Z,978.36
2023-03-11T05:24:27.933Z,978.41
2023-03-11T05:25:27.913Z,978.33
2023-03-11T05:26:27.894Z,978.41
2023-03-11T05:27:27.875Z,978.39
2023-03-11T05:28:27.932Z,978.36
2023-03-11T05:29:27.884Z,978.38
2023-03-11T05:30:27.839Z,978.33
2023-03-11T05:31:28.074Z,978.36
2023-03-11T05:32:27.853Z,978.33
2023-03-11T05:33:27.779Z,978.41
2023-03-11T05:34:27.820Z,978.39
2023-03-11T05:35:27.864Z,978.37
2023-03-11T05:36:27.720Z,978.38
2023-03-11T05:37:27.747Z,978.35
2023-03-11T05:38:27.702Z,978.35
2023-03-11T05:39:27.718Z,978.39
2023-03-11T05:40:27.707Z,978.45
2023-03-11T05:41:27.669Z,978.48
2023-03-11T05:42:27.682Z,978.48
2023-03-11T05:43:27.675Z,978.50
2023-03-11T05:44:27.695Z,978.45
2023-03-11T05:45:27.621Z,978.51
2023-03-11T05:46:27.670Z,978.54
2023-03-11T05:47:27.590Z,978.50
2023-03-11T05:48:27.620Z,978.48
2023-03-11T05:49:27.561Z,978.56
2023-03-11T05:50:27.658Z,978.60
2023-03-11T05:51:27.583Z,978.56
2023-03-11T05:52:27.524Z,978.60
2023-03-11T05:53:27.525Z,978.58
2023-03-11T05:54:27.489Z,978.64
2023-03-11T05:55:27.484Z,978.67
2023-03-11T05:56:27.475Z,978.71
2023-03-11T05:57:27.629Z,978.73
2023-03-11T05:58:27.469Z,978.70
2023-03-11T05:59:27.418Z,978.81
2023-03-11T06:00:27.410Z,978.80
2023-03-11T06:01:27.351Z,978.79
2023-03-11T06:02:27.381Z,978.79
2023-03-11T06:03:27.367Z,978.80
2023-03-11T06:04:27.490Z,978.86
2023-03-11T06:05:27.450Z,978.80
2023-03-11T06:06:27.321Z,978.87
2023-03-11T06:07:27.293Z,978.90
2023-03-11T06:08:27.251Z,978.83
2023-03-11T06:09:27.228Z,978.91
2023-03-11T06:10:27.245Z,978.95
2023-03-11T06:11:27.257Z,978.98
2023-03-11T06:12:27.216Z,979.00
2023-03-11T06:13:27.200Z,979.01
2023-03-11T06:14:27.198Z,979.10
2023-03-11T06:15:27.158Z,979.06
2023-03-11T06:16:27.263Z,979.13
2023-03-11T06:17:29.346Z,979.17
2023-03-11T06:18:27.149Z,979.09
2023-03-11T06:19:27.273Z,979.19
2023-03-11T06:20:27.065Z,979.20
2023-03-11T06:21:27.118Z,979.19
2023-03-11T06:22:27.048Z,979.18
2023-03-11T06:23:27.059Z,979.24
2023-03-11T06:24:27.026Z,979.26
2023-03-11T06:25:27.003Z,979.24
2023-03-11T06:26:26.981Z,979.24
2023-03-11T06:27:26.968Z,979.27
2023-03-11T06:28:27.016Z,979.26
2023-03-11T06:29:26.956Z,979.32
2023-03-11T06:30:26.981Z,979.34
2023-03-11T06:31:27.046Z,979.38
2023-03-11T06:32:26.975Z,979.33
2023-03-11T06:33:26.869Z,979.32
2023-03-11T06:34:26.849Z,979.42
2023-03-11T06:35:26.853Z,979.35
2023-03-11T06:36:26.852Z,979.38
2023-03-11T06:37:26.822Z,979.39
2023-03-11T06:38:26.843Z,979.40
2023-03-11T06:39:26.840Z,979.41
2023-03-11T06:40:26.792Z,979.48
2023-03-11T06:41:27.003Z,979.42
2023-03-11T06:42:26.879Z,979.49
2023-03-11T06:43:26.932Z,979.55
2023-03-11T06:44:26.700Z,979.66
2023-03-11T06:45:26.730Z,979.65
2023-03-11T06:46:26.720Z,979.70
2023-03-11T06:47:26.719Z,979.75
2023-03-11T06:48:26.695Z,979.73
2023-03-11T06:49:26.611Z,979.75
2023-03-11T06:50:26.646Z,979.75
2023-03-11T06:51:26.596Z,979.80
2023-03-11T06:52:26.642Z,979.77
2023-03-11T06:53:26.594Z,979.82
2023-03-11T06:54:26.550Z,979.83
2023-03-11T06:55:26.547Z,979.84
2023-03-11T06:56:26.522Z,979.84
2023-03-11T06:57:26.538Z,979.93
2023-03-11T06:58:26.531Z,979.90
2023-03-11T06:59:26.705Z,979.93
2023-03-11T07:00:26.468Z,979.94
2023-03-11T07:01:26.520Z,979.93
2023-03-11T07:02:26.484Z,979.96
2023-03-11T07:03:26.440Z,979.96
2023-03-11T07:04:26.470Z,980.01
2023-03-11T07:05:26.415Z,980.00
2023-03-11T07:06:26.395Z,980.03
2023-03-11T07:07:26.352Z,979.98
2023-03-11T07:08:26.370Z,980.03
2023-03-11T07:09:26.357Z,980.04
2023-03-11T07:10:26.370Z,980.03
2023-03-11T07:11:26.340Z,980.08
2023-03-11T07:12:26.289Z,980.05
2023-03-11T07:13:26.285Z,980.07
2023-03-11T07:14:26.251Z,980.06
2023-03-11T07:15:26.242Z,980.09
2023-03-11T07:16:26.303Z,980.09
2023-03-11T07:17:26.207Z,980.11
2023-03-11T07:18:26.203Z,980.09
2023-03-11T07:19:26.198Z,980.16
2023-03-11T07:20:26.207Z,980.13
2023-03-11T07:21:26.144Z,980.23
2023-03-11T07:22:26.153Z,980.26
2023-03-11T07:23:26.158Z,980.23
2023-03-11T07:24:26.104Z,980.28
2023-03-11T07:25:26.123Z,980.31
2023-03-11T07:26:26.104Z,980.36
2023-03-11T07:27:26.062Z,980.30
2023-03-11T07:28:26.058Z,980.38
2023-03-11T07:29:26.050Z,980.37
2023-03-11T07:30:26.025Z,980.48
2023-03-11T07:31:26.060Z,980.36
2023-03-11T07:32:26.048Z,980.43
2023-03-11T07:33:25.970Z,980.45
2023-03-11T07:34:25.962Z,980.45
2023-03-11T07:35:25.952Z,980.47
2023-03-11T07:36:25.968Z,980.53
2023-03-11T07:37:25.922Z,980.53
2023-03-11T07:38:26.107Z,980.61
2023-03-11T07:39:25.884Z,980.62
2023-03-11T07:40:25.871Z,981.01
2023-03-11T07:41:25.857Z,981.04
2023-03-11T07:42:25.852Z,981.11
2023-03-11T07:43:25.840Z,981.04
2023-03-11T07:44:25.815Z,981.02
2023-03-11T07:45:25.809Z,981.00
2023-03-11T07:46:25.873Z,981.12
2023-03-11T07:47:25.781Z,980.86
2023-03-11T07:48:25.808Z,981.03
2023-03-11T07:49:25.799Z,981.18
2023-03-11T07:50:25.753Z,981.20
2023-03-11T07:51:25.964Z,981.14
2023-03-11T07:52:25.749Z,981.27
2023-03-11T07:53:25.772Z,981.34
2023-03-11T07:54:26.117Z,981.74
2023-03-11T07:55:25.903Z,981.15
2023-03-11T07:56:25.720Z,981.84
2023-03-11T07:57:25.713Z,981.87
2023-03-11T07:58:25.683Z,981.42
2023-03-11T07:59:25.670Z,981.30
2023-03-11T08:00:25.717Z,981.16
2023-03-11T08:01:25.659Z,981.36
2023-03-11T08:02:25.676Z,981.45
2023-03-11T08:03:25.723Z,981.42
2023-03-11T08:04:25.648Z,981.26
2023-03-11T08:05:25.639Z,981.07
2023-03-11T08:06:25.656Z,981.12
2023-03-11T08:07:25.668Z,981.54
2023-03-11T08:08:25.624Z,981.54
2023-03-11T08:09:25.658Z,981.19
2023-03-11T08:10:25.620Z,981.35
2023-03-11T08:11:25.631Z,981.27
2023-03-11T08:12:25.619Z,981.22
2023-03-11T08:13:25.584Z,981.24
2023-03-11T08:14:25.623Z,981.27
2023-03-11T08:15:25.628Z,981.25
2023-03-11T08:16:25.565Z,981.30
2023-03-11T08:17:25.578Z,981.28
2023-03-11T08:18:25.565Z,981.25
2023-03-11T08:19:25.548Z,981.22
2023-03-11T08:20:25.557Z,981.26
2023-03-11T08:21:25.562Z,981.34
2023-03-11T08:22:25.755Z,981.26
2023-03-11T08:23:25.535Z,981.38
2023-03-11T08:24:25.537Z,981.33
2023-03-11T08:25:25.484Z,981.30
2023-03-11T08:26:25.492Z,981.35
2023-03-11T08:27:25.500Z,981.27
2023-03-11T08:28:25.520Z,981.27
2023-03-11T08:29:25.478Z,981.29
2023-03-11T08:30:25.429Z,981.30
2023-03-11T08:31:25.568Z,981.36
2023-03-11T08:32:25.493Z,981.36
2023-03-11T08:33:25.432Z,981.43
2023-03-11T08:34:25.405Z,981.46
2023-03-11T08:35:25.488Z,981.37
2023-03-11T08:36:25.382Z,981.35
2023-03-11T08:37:25.401Z,981.44
2023-03-11T08:38:25.371Z,981.51
2023-03-11T08:39:25.391Z,981.46
2023-03-11T08:40:25.392Z,981.47
2023-03-11T08:41:25.368Z,981.54
2023-03-11T08:42:25.373Z,981.53
2023-03-11T08:43:25.336Z,981.57
2023-03-11T08:44:25.315Z,981.61
2023-03-11T08:45:25.302Z,981.61
2023-03-11T08:46:25.465Z,981.66
2023-03-11T08:47:25.295Z,981.66
2023-03-11T08:48:25.266Z,981.61
2023-03-11T08:49:25.247Z,981.67
2023-03-11T08:50:25.434Z,981.70
2023-03-11T08:51:25.227Z,981.74
2023-03-11T08:52:25.218Z,981.78
2023-03-11T08:53:25.219Z,981.75
2023-03-11T08:54:25.193Z,981.75
2023-03-11T08:55:25.184Z,981.71
2023-03-11T08:56:25.185Z,981.71
2023-03-11T08:57:25.148Z,981.77
2023-03-11T08:58:25.135Z,981.72
2023-03-11T08:59:25.101Z,981.79
2023-03-11T09:00:25.093Z,981.70
2023-03-11T09:01:25.095Z,981.69
2023-03-11T09:02:25.144Z,981.75
2023-03-11T09:03:25.060Z,981.74
2023-03-11T09:04:25.112Z,981.77
2023-03-11T09:05:25.071Z,981.79
2023-03-11T09:06:25.041Z,981.81
2023-03-11T09:07:25.021Z,981.84
2023-03-11T09:08:25.056Z,981.80
2023-03-11T09:09:24.989Z,981.81
2023-03-11T09:10:24.977Z,981.85
2023-03-11T09:11:24.957Z,981.90
2023-03-11T09:12:24.973Z,981.89
2023-03-11T09:13:24.958Z,981.97
2023-03-11T09:14:24.941Z,981.89
2023-03-11T09:15:24.913Z,981.93
2023-03-11T09:16:25.074Z,981.91
2023-03-11T09:17:25.107Z,981.97
2023-03-11T09:18:25.073Z,981.97
2023-03-11T09:19:24.888Z,981.96
2023-03-11T09:20:24.905Z,982.02
2023-03-11T09:21:24.825Z,982.11
2023-03-11T09:22:24.829Z,982.13
2023-03-11T09:23:25.016Z,982.08
2023-03-11T09:24:24.837Z,982.09
2023-03-11T09:25:24.793Z,982.16
2023-03-11T09:26:24.807Z,982.18
2023-03-11T09:27:24.799Z,982.22
2023-03-11T09:28:24.770Z,982.22
2023-03-11T09:29:24.724Z,982.20
2023-03-11T09:30:24.900Z,982.24
2023-03-11T09:31:24.811Z,982.28
2023-03-11T09:32:24.752Z,982.29
2023-03-11T09:33:24.717Z,982.30
2023-03-11T09:34:24.698Z,982.26
2023-03-11T09:35:24.670Z,982.30
2023-03-11T09:36:24.706Z,982.29
2023-03-11T09:37:24.650Z,982.25
2023-03-11T09:38:24.640Z,982.32
2023-03-11T09:39:24.620Z,982.32
2023-03-11T09:40:24.593Z,982.33
2023-03-11T09:41:24.597Z,982.43
2023-03-11T09:42:24.586Z,982.37
2023-03-11T09:43:24.555Z,982.41
2023-03-11T09:44:24.598Z,982.43
2023-03-11T09:45:24.509Z,982.40
2023-03-11T09:46:24.621Z,982.46
2023-03-11T09:47:24.528Z,982.43
2023-03-11T09:48:24.499Z,982.43
2023-03-11T09:49:24.456Z,982.46
2023-03-11T09:50:24.510Z,982.54
2023-03-11T09:51:24.447Z,982.47
2023-03-11T09:52:24.430Z,982.53
2023-03-11T09:53:24.507Z,982.54
2023-03-11T09:54:24.456Z,982.59
2023-03-11T09:55:24.385Z,982.59
2023-03-11T09:56:24.397Z,982.50
2023-03-11T09:57:24.372Z,982.52
2023-03-11T09:58:24.346Z,982.50
2023-03-11T09:59:24.522Z,982.60
2023-03-11T10:00:24.342Z,982.61
2023-03-11T10:01:24.288Z,982.59
2023-03-11T10:02:24.393Z,982.60
2023-03-11T10:03:24.418Z,982.59
2023-03-11T10:04:24.296Z,982.66
2023-03-11T10:05:24.333Z,982.56
2023-03-11T10:06:24.234Z,982.63
2023-03-11T10:07:24.216Z,982.58
2023-03-11T10:08:24.204Z,982.66
2023-03-11T10:09:24.237Z,982.61
2023-03-11T10:10:24.274Z,982.66
2023-03-11T10:11:24.202Z,982.62
2023-03-11T10:12:24.181Z,982.70
2023-03-11T10:13:24.147Z,982.66
2023-03-11T10:14:24.149Z,982.63
2023-03-11T10:15:24.098Z,982.67
2023-03-11T10:16:24.192Z,982.68
2023-03-11T10:17:24.114Z,982.72
2023-03-11T10:18:24.098Z,982.76
2023-03-11T10:19:24.087Z,982.76
2023-03-11T10:20:24.046Z,982.80
2023-03-11T10:21:25.676Z,982.81
2023-03-11T10:22:24.019Z,982.82
2023-03-11T10:23:24.063Z,982.87
2023-03-11T10:24:24.031Z,982.85
2023-03-11T10:25:24.008Z,982.90
2023-03-11T10:26:23.985Z,982.93
2023-03-11T10:27:23.962Z,982.94
2023-03-11T10:28:23.931Z,982.86
2023-03-11T10:29:23.943Z,982.88
2023-03-11T10:30:24.158Z,982.96
2023-03-11T10:31:23.976Z,982.94
2023-03-11T10:32:23.941Z,983.01
2023-03-11T10:33:23.900Z,982.96
2023-03-11T10:34:23.875Z,983.06
2023-03-11T10:35:23.927Z,982.99
2023-03-11T10:36:24.078Z,983.12
2023-03-11T10:37:23.839Z,983.03
2023-03-11T10:38:23.847Z,983.07
2023-03-11T10:39:23.792Z,983.11
2023-03-11T10:40:24.200Z,983.07
2023-03-11T10:41:23.779Z,983.11
2023-03-11T10:42:23.968Z,983.08
2023-03-11T10:43:23.782Z,983.11
2023-03-11T10:44:23.720Z,983.12
2023-03-11T10:45:23.719Z,983.11
2023-03-11T10:46:23.744Z,983.12
2023-03-11T10:47:23.671Z,983.15
2023-03-11T10:48:23.740Z,983.18
2023-03-11T10:49:23.712Z,983.22
2023-03-11T10:50:23.682Z,983.20
2023-03-11T10:51:23.659Z,983.20
2023-03-11T10:52:23.630Z,983.21
2023-03-11T10:53:23.629Z,983.21
2023-03-11T10:54:23.576Z,983.21
2023-03-11T10:55:23.606Z,983.29
2023-03-11T10:56:23.565Z,983.27
2023-03-11T10:57:23.562Z,983.24
2023-03-11T10:58:23.541Z,983.29
2023-03-11T10:59:23.549Z,983.36
2023-03-11T11:00:23.528Z,983.35
2023-03-11T11:01:23.593Z,983.38
2023-03-11T11:02:23.529Z,983.40
2023-03-11T11:03:23.533Z,983.37
2023-03-11T11:04:23.548Z,983.41
2023-03-11T11:05:23.435Z,983.39
2023-03-11T11:06:23.435Z,983.39
2023-03-11T11:07:23.420Z,983.33
2023-03-11T11:08:23.415Z,983.33
2023-03-11T11:09:26.357Z,983.42
2023-03-11T11:10:23.391Z,983.36
2023-03-11T11:11:23.345Z,983.42
2023-03-11T11:12:23.379Z,983.41
2023-03-11T11:13:23.316Z,983.42
2023-03-11T11:14:23.315Z,983.46
2023-03-11T11:15:23.298Z,983.47
2023-03-11T11:16:23.389Z,983.42
2023-03-11T11:17:23.459Z,983.42
2023-03-11T11:18:23.272Z,983.45
2023-03-11T11:19:23.233Z,983.45
2023-03-11T11:20:23.268Z,983.50
2023-03-11T11:21:23.228Z,983.51
2023-03-11T11:22:23.212Z,983.46
2023-03-11T11:23:23.211Z,983.47
2023-03-11T11:24:23.199Z,983.46
2023-03-11T11:25:23.239Z,983.41
2023-03-11T11:26:23.174Z,983.39
2023-03-11T11:27:23.139Z,983.40
2023-03-11T11:28:23.147Z,983.41
2023-03-11T11:29:23.122Z,983.37
2023-03-11T11:30:23.123Z,983.44
2023-03-11T11:31:23.126Z,983.48
2023-03-11T11:32:23.100Z,983.44
2023-03-11T11:33:23.077Z,983.46
2023-03-11T11:34:23.190Z,983.52
2023-03-11T11:35:23.132Z,983.46
2023-03-11T11:36:23.064Z,983.47
2023-03-11T11:37:23.003Z,983.51
2023-03-11T11:38:23.020Z,983.45
2023-03-11T11:39:22.999Z,983.42
2023-03-11T11:40:22.983Z,983.45
2023-03-11T11:41:22.940Z,983.45
2023-03-11T11:42:22.936Z,983.39
2023-03-11T11:43:22.913Z,983.40
2023-03-11T11:44:22.905Z,983.41
2023-03-11T11:45:22.876Z,983.39
2023-03-11T11:46:23.024Z,983.47
2023-03-11T11:47:22.853Z,983.47
2023-03-11T11:48:22.883Z,983.45
2023-03-11T11:49:23.065Z,983.43
2023-03-11T11:50:23.016Z,983.42
2023-03-11T11:51:22.828Z,983.49
2023-03-11T11:52:22.803Z,983.47
2023-03-11T11:53:22.782Z,983.42
2023-03-11T11:54:22.777Z,983.49
2023-03-11T11:55:22.744Z,983.44
2023-03-11T11:56:22.720Z,983.49
2023-03-11T11:57:22.703Z,983.43
2023-03-11T11:58:22.723Z,983.46
2023-03-11T11:59:22.673Z,983.56
2023-03-11T12:00:22.661Z,983.52
2023-03-11T12:01:22.640Z,983.53
2023-03-11T12:02:22.627Z,983.50
2023-03-11T12:03:22.677Z,983.57
2023-03-11T12:04:22.620Z,983.55
2023-03-11T12:05:22.666Z,983.53
2023-03-11T12:06:22.585Z,983.56
2023-03-11T12:07:22.569Z,983.55
2023-03-11T12:08:22.606Z,983.58
2023-03-11T12:09:22.542Z,983.62
2023-03-11T12:10:24.043Z,983.64
2023-03-11T12:11:22.516Z,983.58
2023-03-11T12:12:22.508Z,983.60
2023-03-11T12:13:22.487Z,983.49
2023-03-11T12:14:22.471Z,983.57
2023-03-11T12:15:22.453Z,983.62
2023-03-11T12:16:22.449Z,983.54
2023-03-11T12:17:22.632Z,983.56
2023-03-11T12:18:22.417Z,983.53
2023-03-11T12:19:22.432Z,983.56
2023-03-11T12:20:22.403Z,983.57
2023-03-11T12:21:22.406Z,983.55
2023-03-11T12:22:22.390Z,983.62
2023-03-11T12:23:22.354Z,983.54
2023-03-11T12:24:22.370Z,983.52
2023-03-11T12:25:22.433Z,983.52
2023-03-11T12:26:22.372Z,983.55
2023-03-11T12:27:22.303Z,983.53
2023-03-11T12:28:22.280Z,983.62